sensor_id;sensor_type;location;lat;lon;timestamp;P1;durP1;ratioP1;P2;durP2;ratioP2
69775;SDS011;57049;51.450;-2.516;2023-05-07T00:00:18;15.70;;;9.10;;
69775;SDS011;57049;51.450;-2.516;2023-05-07T00:02:44;36.67;;;12.07;;
69775;SDS011;57049;51.450;-2.516;2023-05-07T00:05:10;29.20;;;10.80;;
69775;SDS011;57049;51.450;-2.516;2023-05-07T00:07:36;27.80;;;18.65;;
69775;SDS011;57049;51.450;-2.516;2023-05-07T00:10:02;26.02;;;13.52;;
69775;SDS011;57049;51.450;-2.516;2023-05-07T00:12:28;20.33;;;10.15;;
69775;SDS011;57049;51.450;-2.516;2023-05-07T00:14:56;27.87;;;9.93;;
69775;SDS011;57049;51.450;-2.516;2023-05-07T00:17:22;24.20;;;11.63;;
69775;SDS011;57049;51.450;-2.516;2023-05-07T00:19:48;28.57;;;19.30;;
69775;SDS011;57049;51.450;-2.516;2023-05-07T00:22:13;27.00;;;12.20;;
69775;SDS011;57049;51.450;-2.516;2023-05-07T00:24:39;27.93;;;11.93;;
69775;SDS011;57049;51.450;-2.516;2023-05-07T00:27:05;32.87;;;16.30;;
69775;SDS011;57049;51.450;-2.516;2023-05-07T00:29:30;30.77;;;14.13;;
69775;SDS011;57049;51.450;-2.516;2023-05-07T00:31:56;26.67;;;13.95;;
69775;SDS011;57049;51.450;-2.516;2023-05-07T00:34:21;21.70;;;10.77;;
69775;SDS011;57049;51.450;-2.516;2023-05-07T00:36:47;31.27;;;14.80;;
69775;SDS011;57049;51.450;-2.516;2023-05-07T00:39:13;27.47;;;11.13;;
69775;SDS011;57049;51.450;-2.516;2023-05-07T00:41:38;27.85;;;12.85;;
69775;SDS011;57049;51.450;-2.516;2023-05-07T00:44:04;29.70;;;12.57;;
69775;SDS011;57049;51.450;-2.516;2023-05-07T00:46:30;31.02;;;16.48;;
69775;SDS011;57049;51.450;-2.516;2023-05-07T00:48:56;33.00;;;13.47;;
69775;SDS011;57049;51.450;-2.516;2023-05-07T00:51:23;31.73;;;18.08;;
69775;SDS011;57049;51.450;-2.516;2023-05-07T00:53:49;28.65;;;14.88;;
69775;SDS011;57049;51.450;-2.516;2023-05-07T00:56:15;26.47;;;14.67;;
69775;SDS011;57049;51.450;-2.516;2023-05-07T00:58:41;26.10;;;12.53;;
69775;SDS011;57049;51.450;-2.516;2023-05-07T01:01:07;35.83;;;18.85;;
69775;SDS011;57049;51.450;-2.516;2023-05-07T01:03:32;28.77;;;15.53;;
69775;SDS011;57049;51.450;-2.516;2023-05-07T01:05:58;29.00;;;14.87;;
69775;SDS011;57049;51.450;-2.516;2023-05-07T01:08:24;31.77;;;13.27;;
69775;SDS011;57049;51.450;-2.516;2023-05-07T01:10:51;25.58;;;12.15;;
69775;SDS011;57049;51.450;-2.516;2023-05-07T01:13:18;25.30;;;14.65;;
69775;SDS011;57049;51.450;-2.516;2023-05-07T01:15:44;40.47;;;13.63;;
69775;SDS011;57049;51.450;-2.516;2023-05-07T01:18:10;26.10;;;13.77;;
69775;SDS011;57049;51.450;-2.516;2023-05-07T01:20:36;40.53;;;16.10;;
69775;SDS011;57049;51.450;-2.516;2023-05-07T01:23:01;32.93;;;17.47;;
69775;SDS011;57049;51.450;-2.516;2023-05-07T01:25:28;32.65;;;16.38;;
69775;SDS011;57049;51.450;-2.516;2023-05-07T01:27:54;33.42;;;12.23;;
69775;SDS011;57049;51.450;-2.516;2023-05-07T01:30:20;24.67;;;15.40;;
69775;SDS011;57049;51.450;-2.516;2023-05-07T01:32:51;28.83;;;18.67;;
69775;SDS011;57049;51.450;-2.516;2023-05-07T01:35:22;26.55;;;17.08;;
69775;SDS011;57049;51.450;-2.516;2023-05-07T01:37:53;32.53;;;18.10;;
69775;SDS011;57049;51.450;-2.516;2023-05-07T01:40:19;54.35;;;28.42;;
69775;SDS011;57049;51.450;-2.516;2023-05-07T01:42:45;35.10;;;22.33;;
69775;SDS011;57049;51.450;-2.516;2023-05-07T01:45:13;34.45;;;16.75;;
69775;SDS011;57049;51.450;-2.516;2023-05-07T01:47:38;36.60;;;21.67;;
69775;SDS011;57049;51.450;-2.516;2023-05-07T01:50:08;45.92;;;21.50;;
69775;SDS011;57049;51.450;-2.516;2023-05-07T01:52:35;39.45;;;24.83;;
69775;SDS011;57049;51.450;-2.516;2023-05-07T01:55:02;36.60;;;25.75;;
69775;SDS011;57049;51.450;-2.516;2023-05-07T01:57:28;38.87;;;21.97;;
69775;SDS011;57049;51.450;-2.516;2023-05-07T01:59:53;123.43;;;66.40;;
69775;SDS011;57049;51.450;-2.516;2023-05-07T02:02:19;65.87;;;26.67;;
69775;SDS011;57049;51.450;-2.516;2023-05-07T02:04:44;54.77;;;40.57;;
69775;SDS011;57049;51.450;-2.516;2023-05-07T02:07:10;31.87;;;23.97;;
69775;SDS011;57049;51.450;-2.516;2023-05-07T02:09:35;49.25;;;25.38;;
69775;SDS011;57049;51.450;-2.516;2023-05-07T02:12:01;50.87;;;24.27;;
69775;SDS011;57049;51.450;-2.516;2023-05-07T02:14:26;34.90;;;21.57;;
69775;SDS011;57049;51.450;-2.516;2023-05-07T02:16:52;49.88;;;28.17;;
69775;SDS011;57049;51.450;-2.516;2023-05-07T02:19:17;35.67;;;25.57;;
69775;SDS011;57049;51.450;-2.516;2023-05-07T02:21:46;45.75;;;22.27;;
69775;SDS011;57049;51.450;-2.516;2023-05-07T02:24:11;39.28;;;31.27;;
69775;SDS011;57049;51.450;-2.516;2023-05-07T02:26:37;34.73;;;24.57;;
69775;SDS011;57049;51.450;-2.516;2023-05-07T02:29:02;47.80;;;33.63;;
69775;SDS011;57049;51.450;-2.516;2023-05-07T02:31:28;33.60;;;22.20;;
69775;SDS011;57049;51.450;-2.516;2023-05-07T02:33:53;41.63;;;27.90;;
69775;SDS011;57049;51.450;-2.516;2023-05-07T02:36:19;175.03;;;109.83;;
69775;SDS011;57049;51.450;-2.516;2023-05-07T02:38:44;36.63;;;24.42;;
69775;SDS011;57049;51.450;-2.516;2023-05-07T02:41:10;76.17;;;59.13;;
69775;SDS011;57049;51.450;-2.516;2023-05-07T02:43:36;41.97;;;33.50;;
69775;SDS011;57049;51.450;-2.516;2023-05-07T02:46:04;41.38;;;30.90;;
69775;SDS011;57049;51.450;-2.516;2023-05-07T02:48:31;46.05;;;25.17;;
69775;SDS011;57049;51.450;-2.516;2023-05-07T02:50:57;39.60;;;33.10;;
69775;SDS011;57049;51.450;-2.516;2023-05-07T02:53:24;42.60;;;32.67;;
69775;SDS011;57049;51.450;-2.516;2023-05-07T02:55:53;45.22;;;39.60;;
69775;SDS011;57049;51.450;-2.516;2023-05-07T02:58:19;52.38;;;26.73;;
69775;SDS011;57049;51.450;-2.516;2023-05-07T03:00:44;43.40;;;33.47;;
69775;SDS011;57049;51.450;-2.516;2023-05-07T03:03:10;49.00;;;26.60;;
69775;SDS011;57049;51.450;-2.516;2023-05-07T03:05:36;54.57;;;30.43;;
69775;SDS011;57049;51.450;-2.516;2023-05-07T03:08:01;42.38;;;23.55;;
69775;SDS011;57049;51.450;-2.516;2023-05-07T03:10:27;42.03;;;29.33;;
69775;SDS011;57049;51.450;-2.516;2023-05-07T03:12:52;56.47;;;30.77;;
69775;SDS011;57049;51.450;-2.516;2023-05-07T03:15:17;36.10;;;26.05;;
69775;SDS011;57049;51.450;-2.516;2023-05-07T03:17:43;31.10;;;25.43;;
69775;SDS011;57049;51.450;-2.516;2023-05-07T03:20:09;42.03;;;24.23;;
69775;SDS011;57049;51.450;-2.516;2023-05-07T03:22:34;51.28;;;28.30;;
69775;SDS011;57049;51.450;-2.516;2023-05-07T03:25:00;45.43;;;22.73;;
69775;SDS011;57049;51.450;-2.516;2023-05-07T03:27:25;40.08;;;24.33;;
69775;SDS011;57049;51.450;-2.516;2023-05-07T03:29:51;46.27;;;29.90;;
69775;SDS011;57049;51.450;-2.516;2023-05-07T03:32:16;34.83;;;27.93;;
69775;SDS011;57049;51.450;-2.516;2023-05-07T03:34:42;23.02;;;18.90;;
69775;SDS011;57049;51.450;-2.516;2023-05-07T03:37:07;27.30;;;22.10;;
69775;SDS011;57049;51.450;-2.516;2023-05-07T03:39:33;30.80;;;22.37;;
69775;SDS011;57049;51.450;-2.516;2023-05-07T03:41:58;32.20;;;27.42;;
69775;SDS011;57049;51.450;-2.516;2023-05-07T03:44:24;52.87;;;27.20;;
69775;SDS011;57049;51.450;-2.516;2023-05-07T03:46:49;35.77;;;27.57;;
69775;SDS011;57049;51.450;-2.516;2023-05-07T03:49:15;41.22;;;22.30;;
69775;SDS011;57049;51.450;-2.516;2023-05-07T03:51:40;61.90;;;33.77;;
69775;SDS011;57049;51.450;-2.516;2023-05-07T03:54:06;42.03;;;29.90;;
69775;SDS011;57049;51.450;-2.516;2023-05-07T03:56:32;50.27;;;27.63;;
69775;SDS011;57049;51.450;-2.516;2023-05-07T03:58:58;35.17;;;23.42;;
69775;SDS011;57049;51.450;-2.516;2023-05-07T04:01:23;45.97;;;26.23;;
69775;SDS011;57049;51.450;-2.516;2023-05-07T04:03:49;44.73;;;20.90;;
69775;SDS011;57049;51.450;-2.516;2023-05-07T04:06:15;36.40;;;24.33;;
69775;SDS011;57049;51.450;-2.516;2023-05-07T04:08:42;50.97;;;30.57;;
69775;SDS011;57049;51.450;-2.516;2023-05-07T04:11:08;47.53;;;28.00;;
69775;SDS011;57049;51.450;-2.516;2023-05-07T04:13:33;67.27;;;34.80;;
69775;SDS011;57049;51.450;-2.516;2023-05-07T04:16:00;70.30;;;30.33;;
69775;SDS011;57049;51.450;-2.516;2023-05-07T04:18:27;43.45;;;26.52;;
69775;SDS011;57049;51.450;-2.516;2023-05-07T04:20:52;51.37;;;26.83;;
69775;SDS011;57049;51.450;-2.516;2023-05-07T04:23:18;87.37;;;33.57;;
69775;SDS011;57049;51.450;-2.516;2023-05-07T04:25:43;49.20;;;35.28;;
69775;SDS011;57049;51.450;-2.516;2023-05-07T04:28:10;53.83;;;38.57;;
69775;SDS011;57049;51.450;-2.516;2023-05-07T04:30:36;48.95;;;32.75;;
69775;SDS011;57049;51.450;-2.516;2023-05-07T04:33:02;38.58;;;27.25;;
69775;SDS011;57049;51.450;-2.516;2023-05-07T04:35:27;52.20;;;30.13;;
69775;SDS011;57049;51.450;-2.516;2023-05-07T04:37:53;37.30;;;22.60;;
69775;SDS011;57049;51.450;-2.516;2023-05-07T04:40:18;52.20;;;30.60;;
69775;SDS011;57049;51.450;-2.516;2023-05-07T04:42:45;55.15;;;27.98;;
69775;SDS011;57049;51.450;-2.516;2023-05-07T04:45:10;57.67;;;30.83;;
69775;SDS011;57049;51.450;-2.516;2023-05-07T04:47:37;54.50;;;31.67;;
69775;SDS011;57049;51.450;-2.516;2023-05-07T04:50:03;39.60;;;29.33;;
69775;SDS011;57049;51.450;-2.516;2023-05-07T04:52:29;57.20;;;25.17;;
69775;SDS011;57049;51.450;-2.516;2023-05-07T04:54:54;43.57;;;29.83;;
69775;SDS011;57049;51.450;-2.516;2023-05-07T04:57:20;56.38;;;32.22;;
69775;SDS011;57049;51.450;-2.516;2023-05-07T04:59:46;53.67;;;28.93;;
69775;SDS011;57049;51.450;-2.516;2023-05-07T05:02:11;58.63;;;28.63;;
69775;SDS011;57049;51.450;-2.516;2023-05-07T05:04:37;74.40;;;43.20;;
69775;SDS011;57049;51.450;-2.516;2023-05-07T05:07:02;61.60;;;41.27;;
69775;SDS011;57049;51.450;-2.516;2023-05-07T05:09:31;59.72;;;33.10;;
69775;SDS011;57049;51.450;-2.516;2023-05-07T05:11:56;41.67;;;26.43;;
69775;SDS011;57049;51.450;-2.516;2023-05-07T05:14:22;48.35;;;28.10;;
69775;SDS011;57049;51.450;-2.516;2023-05-07T05:16:47;63.83;;;42.27;;
69775;SDS011;57049;51.450;-2.516;2023-05-07T05:19:13;39.37;;;24.10;;
69775;SDS011;57049;51.450;-2.516;2023-05-07T05:21:38;42.65;;;25.83;;
69775;SDS011;57049;51.450;-2.516;2023-05-07T05:24:04;32.30;;;18.73;;
69775;SDS011;57049;51.450;-2.516;2023-05-07T05:26:30;34.00;;;19.57;;
69775;SDS011;57049;51.450;-2.516;2023-05-07T05:28:55;32.37;;;23.43;;
69775;SDS011;57049;51.450;-2.516;2023-05-07T05:31:21;34.13;;;17.90;;
69775;SDS011;57049;51.450;-2.516;2023-05-07T05:33:46;37.50;;;20.87;;
69775;SDS011;57049;51.450;-2.516;2023-05-07T05:36:12;34.03;;;30.47;;
69775;SDS011;57049;51.450;-2.516;2023-05-07T05:38:38;46.20;;;22.27;;
69775;SDS011;57049;51.450;-2.516;2023-05-07T05:41:04;33.92;;;28.27;;
69775;SDS011;57049;51.450;-2.516;2023-05-07T05:43:30;34.10;;;16.20;;
69775;SDS011;57049;51.450;-2.516;2023-05-07T05:45:56;53.90;;;19.73;;
69775;SDS011;57049;51.450;-2.516;2023-05-07T05:48:22;39.40;;;20.85;;
69775;SDS011;57049;51.450;-2.516;2023-05-07T05:50:48;28.23;;;15.13;;
69775;SDS011;57049;51.450;-2.516;2023-05-07T05:53:14;32.90;;;21.13;;
69775;SDS011;57049;51.450;-2.516;2023-05-07T05:55:41;56.15;;;50.05;;
69775;SDS011;57049;51.450;-2.516;2023-05-07T05:58:06;45.38;;;18.85;;
69775;SDS011;57049;51.450;-2.516;2023-05-07T06:00:32;38.40;;;18.57;;
69775;SDS011;57049;51.450;-2.516;2023-05-07T06:02:58;28.10;;;15.75;;
69775;SDS011;57049;51.450;-2.516;2023-05-07T06:05:23;34.47;;;16.47;;
69775;SDS011;57049;51.450;-2.516;2023-05-07T06:07:49;29.47;;;17.70;;
69775;SDS011;57049;51.450;-2.516;2023-05-07T06:10:14;76.33;;;41.80;;
69775;SDS011;57049;51.450;-2.516;2023-05-07T06:12:40;40.67;;;16.83;;
69775;SDS011;57049;51.450;-2.516;2023-05-07T06:15:06;23.70;;;13.50;;
69775;SDS011;57049;51.450;-2.516;2023-05-07T06:17:31;24.17;;;13.13;;
69775;SDS011;57049;51.450;-2.516;2023-05-07T06:19:57;27.73;;;14.50;;
69775;SDS011;57049;51.450;-2.516;2023-05-07T06:22:22;27.33;;;14.50;;
69775;SDS011;57049;51.450;-2.516;2023-05-07T06:24:48;26.67;;;11.07;;
69775;SDS011;57049;51.450;-2.516;2023-05-07T06:27:13;25.37;;;15.03;;
69775;SDS011;57049;51.450;-2.516;2023-05-07T06:29:39;26.17;;;10.07;;
69775;SDS011;57049;51.450;-2.516;2023-05-07T06:34:36;17.52;;;8.23;;
69775;SDS011;57049;51.450;-2.516;2023-05-07T06:37:02;15.07;;;7.45;;
69775;SDS011;57049;51.450;-2.516;2023-05-07T06:39:28;18.87;;;7.20;;
69775;SDS011;57049;51.450;-2.516;2023-05-07T06:41:53;20.83;;;5.90;;
69775;SDS011;57049;51.450;-2.516;2023-05-07T06:44:19;19.63;;;6.50;;
69775;SDS011;57049;51.450;-2.516;2023-05-07T06:46:44;16.08;;;6.68;;
69775;SDS011;57049;51.450;-2.516;2023-05-07T06:49:10;19.13;;;6.90;;
69775;SDS011;57049;51.450;-2.516;2023-05-07T06:51:37;24.33;;;7.30;;
69775;SDS011;57049;51.450;-2.516;2023-05-07T06:54:02;16.93;;;6.70;;
69775;SDS011;57049;51.450;-2.516;2023-05-07T06:56:29;18.25;;;6.85;;
69775;SDS011;57049;51.450;-2.516;2023-05-07T06:58:55;17.27;;;6.60;;
69775;SDS011;57049;51.450;-2.516;2023-05-07T07:01:21;17.40;;;6.53;;
69775;SDS011;57049;51.450;-2.516;2023-05-07T07:03:46;15.47;;;6.73;;
69775;SDS011;57049;51.450;-2.516;2023-05-07T07:06:12;14.95;;;5.95;;
69775;SDS011;57049;51.450;-2.516;2023-05-07T07:08:37;16.07;;;5.90;;
69775;SDS011;57049;51.450;-2.516;2023-05-07T07:11:04;16.38;;;5.88;;
69775;SDS011;57049;51.450;-2.516;2023-05-07T07:13:29;14.55;;;5.13;;
69775;SDS011;57049;51.450;-2.516;2023-05-07T07:15:55;15.77;;;4.83;;
69775;SDS011;57049;51.450;-2.516;2023-05-07T07:18:21;17.25;;;5.70;;
69775;SDS011;57049;51.450;-2.516;2023-05-07T07:20:46;14.03;;;6.40;;
69775;SDS011;57049;51.450;-2.516;2023-05-07T07:23:12;11.17;;;4.67;;
69775;SDS011;57049;51.450;-2.516;2023-05-07T07:25:37;12.25;;;5.65;;
69775;SDS011;57049;51.450;-2.516;2023-05-07T07:28:03;11.40;;;4.60;;
69775;SDS011;57049;51.450;-2.516;2023-05-07T07:30:28;11.23;;;5.27;;
69775;SDS011;57049;51.450;-2.516;2023-05-07T07:32:54;14.75;;;5.53;;
69775;SDS011;57049;51.450;-2.516;2023-05-07T07:35:21;15.13;;;7.10;;
69775;SDS011;57049;51.450;-2.516;2023-05-07T07:37:46;13.98;;;6.57;;
69775;SDS011;57049;51.450;-2.516;2023-05-07T07:40:14;12.70;;;6.43;;
69775;SDS011;57049;51.450;-2.516;2023-05-07T07:42:40;16.17;;;5.20;;
69775;SDS011;57049;51.450;-2.516;2023-05-07T07:45:06;15.77;;;4.30;;
69775;SDS011;57049;51.450;-2.516;2023-05-07T07:47:32;18.80;;;5.32;;
69775;SDS011;57049;51.450;-2.516;2023-05-07T07:49:57;11.40;;;4.07;;
69775;SDS011;57049;51.450;-2.516;2023-05-07T07:52:23;11.48;;;4.10;;
69775;SDS011;57049;51.450;-2.516;2023-05-07T07:54:48;14.97;;;3.63;;
69775;SDS011;57049;51.450;-2.516;2023-05-07T07:57:14;14.93;;;5.33;;
69775;SDS011;57049;51.450;-2.516;2023-05-07T07:59:39;12.50;;;4.20;;
69775;SDS011;57049;51.450;-2.516;2023-05-07T08:02:05;13.20;;;4.37;;
69775;SDS011;57049;51.450;-2.516;2023-05-07T08:04:31;11.65;;;6.68;;
69775;SDS011;57049;51.450;-2.516;2023-05-07T08:06:58;18.23;;;7.20;;
69775;SDS011;57049;51.450;-2.516;2023-05-07T08:09:23;11.33;;;5.60;;
69775;SDS011;57049;51.450;-2.516;2023-05-07T08:11:49;10.63;;;4.97;;
69775;SDS011;57049;51.450;-2.516;2023-05-07T08:14:14;11.63;;;3.77;;
69775;SDS011;57049;51.450;-2.516;2023-05-07T08:16:41;8.38;;;4.00;;
69775;SDS011;57049;51.450;-2.516;2023-05-07T08:19:06;18.93;;;7.10;;
69775;SDS011;57049;51.450;-2.516;2023-05-07T08:21:32;12.55;;;5.25;;
69775;SDS011;57049;51.450;-2.516;2023-05-07T08:23:57;10.60;;;5.30;;
69775;SDS011;57049;51.450;-2.516;2023-05-07T08:26:23;17.10;;;6.77;;
69775;SDS011;57049;51.450;-2.516;2023-05-07T08:28:48;11.33;;;4.13;;
69775;SDS011;57049;51.450;-2.516;2023-05-07T08:31:14;57.43;;;15.47;;
69775;SDS011;57049;51.450;-2.516;2023-05-07T08:33:39;10.23;;;2.60;;
69775;SDS011;57049;51.450;-2.516;2023-05-07T08:36:05;11.70;;;4.13;;
69775;SDS011;57049;51.450;-2.516;2023-05-07T08:38:31;7.15;;;2.53;;
69775;SDS011;57049;51.450;-2.516;2023-05-07T08:40:56;14.07;;;4.23;;
69775;SDS011;57049;51.450;-2.516;2023-05-07T08:43:22;8.93;;;4.67;;
69775;SDS011;57049;51.450;-2.516;2023-05-07T08:45:52;10.27;;;3.83;;
69775;SDS011;57049;51.450;-2.516;2023-05-07T08:48:20;6.50;;;2.45;;
69775;SDS011;57049;51.450;-2.516;2023-05-07T08:50:49;8.90;;;2.90;;
69775;SDS011;57049;51.450;-2.516;2023-05-07T08:53:15;6.77;;;2.70;;
69775;SDS011;57049;51.450;-2.516;2023-05-07T08:55:42;7.53;;;2.45;;
69775;SDS011;57049;51.450;-2.516;2023-05-07T08:58:07;7.77;;;2.10;;
69775;SDS011;57049;51.450;-2.516;2023-05-07T09:00:33;9.38;;;2.53;;
69775;SDS011;57049;51.450;-2.516;2023-05-07T09:02:59;5.80;;;2.97;;
69775;SDS011;57049;51.450;-2.516;2023-05-07T09:05:26;6.03;;;2.38;;
69775;SDS011;57049;51.450;-2.516;2023-05-07T09:07:51;9.43;;;3.25;;
69775;SDS011;57049;51.450;-2.516;2023-05-07T09:10:17;28.63;;;10.10;;
69775;SDS011;57049;51.450;-2.516;2023-05-07T09:12:43;10.73;;;3.78;;
69775;SDS011;57049;51.450;-2.516;2023-05-07T09:15:11;11.50;;;6.87;;
69775;SDS011;57049;51.450;-2.516;2023-05-07T09:17:37;12.15;;;4.80;;
69775;SDS011;57049;51.450;-2.516;2023-05-07T09:20:03;17.33;;;6.53;;
69775;SDS011;57049;51.450;-2.516;2023-05-07T09:22:33;11.23;;;5.40;;
69775;SDS011;57049;51.450;-2.516;2023-05-07T09:25:01;12.00;;;3.40;;
69775;SDS011;57049;51.450;-2.516;2023-05-07T09:27:26;9.18;;;4.10;;
69775;SDS011;57049;51.450;-2.516;2023-05-07T09:29:52;9.50;;;2.93;;
69775;SDS011;57049;51.450;-2.516;2023-05-07T09:32:17;9.83;;;4.13;;
69775;SDS011;57049;51.450;-2.516;2023-05-07T09:34:43;9.65;;;3.63;;
69775;SDS011;57049;51.450;-2.516;2023-05-07T09:37:10;6.90;;;2.60;;
69775;SDS011;57049;51.450;-2.516;2023-05-07T09:42:10;9.07;;;3.60;;
69775;SDS011;57049;51.450;-2.516;2023-05-07T09:44:45;9.32;;;3.45;;
69775;SDS011;57049;51.450;-2.516;2023-05-07T09:47:12;14.20;;;6.32;;
69775;SDS011;57049;51.450;-2.516;2023-05-07T09:49:43;15.93;;;8.03;;
69775;SDS011;57049;51.450;-2.516;2023-05-07T09:52:13;10.10;;;5.30;;
69775;SDS011;57049;51.450;-2.516;2023-05-07T09:54:39;10.13;;;3.85;;
69775;SDS011;57049;51.450;-2.516;2023-05-07T09:57:08;11.23;;;4.07;;
69775;SDS011;57049;51.450;-2.516;2023-05-07T09:59:37;11.02;;;3.90;;
69775;SDS011;57049;51.450;-2.516;2023-05-07T10:02:03;9.97;;;4.03;;
69775;SDS011;57049;51.450;-2.516;2023-05-07T10:04:30;15.55;;;5.05;;
69775;SDS011;57049;51.450;-2.516;2023-05-07T10:06:56;14.05;;;5.10;;
69775;SDS011;57049;51.450;-2.516;2023-05-07T10:09:23;20.17;;;6.22;;
69775;SDS011;57049;51.450;-2.516;2023-05-07T10:11:50;10.80;;;5.10;;
69775;SDS011;57049;51.450;-2.516;2023-05-07T10:14:16;13.73;;;5.70;;
69775;SDS011;57049;51.450;-2.516;2023-05-07T10:16:42;21.08;;;8.00;;
69775;SDS011;57049;51.450;-2.516;2023-05-07T10:19:08;12.57;;;5.60;;
69775;SDS011;57049;51.450;-2.516;2023-05-07T10:21:37;11.40;;;5.32;;
69775;SDS011;57049;51.450;-2.516;2023-05-07T10:24:19;11.80;;;5.03;;
69775;SDS011;57049;51.450;-2.516;2023-05-07T10:26:48;13.40;;;5.20;;
69775;SDS011;57049;51.450;-2.516;2023-05-07T10:35:15;9.35;;;3.72;;
69775;SDS011;57049;51.450;-2.516;2023-05-07T10:37:45;14.33;;;5.73;;
69775;SDS011;57049;51.450;-2.516;2023-05-07T10:40:11;11.63;;;3.85;;
69775;SDS011;57049;51.450;-2.516;2023-05-07T10:42:38;9.80;;;3.38;;
69775;SDS011;57049;51.450;-2.516;2023-05-07T10:45:15;8.60;;;4.50;;
69775;SDS011;57049;51.450;-2.516;2023-05-07T10:48:05;10.67;;;3.50;;
69775;SDS011;57049;51.450;-2.516;2023-05-07T10:50:33;264.20;;;74.40;;
69775;SDS011;57049;51.450;-2.516;2023-05-07T10:56:23;8.68;;;2.40;;
69775;SDS011;57049;51.450;-2.516;2023-05-07T10:58:51;14.67;;;5.17;;
69775;SDS011;57049;51.450;-2.516;2023-05-07T11:01:22;5.80;;;3.35;;
69775;SDS011;57049;51.450;-2.516;2023-05-07T11:04:22;7.50;;;3.22;;
69775;SDS011;57049;51.450;-2.516;2023-05-07T11:07:34;62.27;;;17.27;;
69775;SDS011;57049;51.450;-2.516;2023-05-07T11:09:54;7.72;;;3.00;;
69775;SDS011;57049;51.450;-2.516;2023-05-07T11:12:59;26.88;;;6.00;;
69775;SDS011;57049;51.450;-2.516;2023-05-07T11:15:34;12.38;;;5.30;;
69775;SDS011;57049;51.450;-2.516;2023-05-07T11:18:01;43.95;;;15.30;;
69775;SDS011;57049;51.450;-2.516;2023-05-07T11:26:00;8.27;;;3.45;;
69775;SDS011;57049;51.450;-2.516;2023-05-07T11:28:33;8.90;;;3.10;;
69775;SDS011;57049;51.450;-2.516;2023-05-07T11:31:05;7.40;;;3.20;;
69775;SDS011;57049;51.450;-2.516;2023-05-07T11:33:31;8.68;;;3.67;;
69775;SDS011;57049;51.450;-2.516;2023-05-07T11:35:57;53.72;;;17.77;;
69775;SDS011;57049;51.450;-2.516;2023-05-07T11:38:24;7.40;;;2.93;;
69775;SDS011;57049;51.450;-2.516;2023-05-07T11:40:54;8.90;;;5.32;;
69775;SDS011;57049;51.450;-2.516;2023-05-07T11:43:22;8.60;;;3.47;;
69775;SDS011;57049;51.450;-2.516;2023-05-07T11:45:47;8.20;;;3.70;;
69775;SDS011;57049;51.450;-2.516;2023-05-07T11:48:14;10.70;;;5.87;;
69775;SDS011;57049;51.450;-2.516;2023-05-07T11:53:27;7.70;;;3.20;;
69775;SDS011;57049;51.450;-2.516;2023-05-07T11:55:54;8.60;;;3.47;;
69775;SDS011;57049;51.450;-2.516;2023-05-07T11:58:21;8.05;;;3.58;;
69775;SDS011;57049;51.450;-2.516;2023-05-07T12:00:52;9.10;;;4.93;;
69775;SDS011;57049;51.450;-2.516;2023-05-07T12:03:18;46.03;;;8.27;;
69775;SDS011;57049;51.450;-2.516;2023-05-07T12:05:45;9.60;;;4.10;;
69775;SDS011;57049;51.450;-2.516;2023-05-07T12:08:14;9.75;;;4.03;;
69775;SDS011;57049;51.450;-2.516;2023-05-07T12:10:41;8.15;;;3.67;;
69775;SDS011;57049;51.450;-2.516;2023-05-07T12:13:20;10.20;;;3.53;;
69775;SDS011;57049;51.450;-2.516;2023-05-07T12:15:50;9.02;;;3.67;;
69775;SDS011;57049;51.450;-2.516;2023-05-07T12:18:21;22.00;;;11.35;;
69775;SDS011;57049;51.450;-2.516;2023-05-07T12:20:47;13.35;;;4.50;;
69775;SDS011;57049;51.450;-2.516;2023-05-07T12:23:13;53.97;;;24.17;;
69775;SDS011;57049;51.450;-2.516;2023-05-07T12:25:39;13.65;;;7.65;;
69775;SDS011;57049;51.450;-2.516;2023-05-07T12:34:31;14.93;;;8.65;;
69775;SDS011;57049;51.450;-2.516;2023-05-07T12:36:57;10.93;;;5.93;;
69775;SDS011;57049;51.450;-2.516;2023-05-07T12:39:27;9.85;;;4.63;;
69775;SDS011;57049;51.450;-2.516;2023-05-07T12:41:55;10.43;;;4.90;;
69775;SDS011;57049;51.450;-2.516;2023-05-07T12:44:23;16.52;;;6.28;;
69775;SDS011;57049;51.450;-2.516;2023-05-07T12:46:50;11.10;;;5.40;;
69775;SDS011;57049;51.450;-2.516;2023-05-07T12:49:16;21.10;;;10.27;;
69775;SDS011;57049;51.450;-2.516;2023-05-07T12:51:43;10.43;;;6.07;;
69775;SDS011;57049;51.450;-2.516;2023-05-07T12:54:09;57.55;;;14.05;;
69775;SDS011;57049;51.450;-2.516;2023-05-07T12:56:37;13.93;;;5.00;;
69775;SDS011;57049;51.450;-2.516;2023-05-07T12:59:03;24.60;;;7.22;;
69775;SDS011;57049;51.450;-2.516;2023-05-07T13:01:29;13.25;;;5.22;;
69775;SDS011;57049;51.450;-2.516;2023-05-07T13:03:56;12.73;;;5.50;;
69775;SDS011;57049;51.450;-2.516;2023-05-07T13:06:25;10.55;;;5.60;;
69775;SDS011;57049;51.450;-2.516;2023-05-07T13:08:51;8.65;;;5.97;;
69775;SDS011;57049;51.450;-2.516;2023-05-07T13:11:16;15.33;;;7.83;;
69775;SDS011;57049;51.450;-2.516;2023-05-07T13:13:42;20.17;;;7.57;;
69775;SDS011;57049;51.450;-2.516;2023-05-07T13:16:09;7.40;;;3.67;;
69775;SDS011;57049;51.450;-2.516;2023-05-07T13:18:37;7.60;;;2.83;;
69775;SDS011;57049;51.450;-2.516;2023-05-07T13:21:03;11.43;;;4.35;;
69775;SDS011;57049;51.450;-2.516;2023-05-07T13:23:29;7.97;;;3.67;;
69775;SDS011;57049;51.450;-2.516;2023-05-07T13:25:55;39.08;;;6.63;;
69775;SDS011;57049;51.450;-2.516;2023-05-07T13:28:21;8.57;;;3.33;;
69775;SDS011;57049;51.450;-2.516;2023-05-07T13:30:46;9.02;;;3.22;;
69775;SDS011;57049;51.450;-2.516;2023-05-07T13:33:12;11.73;;;4.83;;
69775;SDS011;57049;51.450;-2.516;2023-05-07T13:35:38;8.15;;;3.53;;
69775;SDS011;57049;51.450;-2.516;2023-05-07T13:38:04;32.97;;;11.10;;
69775;SDS011;57049;51.450;-2.516;2023-05-07T13:40:29;7.70;;;3.10;;
69775;SDS011;57049;51.450;-2.516;2023-05-07T13:42:56;8.68;;;5.97;;
69775;SDS011;57049;51.450;-2.516;2023-05-07T13:45:23;6.53;;;4.20;;
69775;SDS011;57049;51.450;-2.516;2023-05-07T13:47:50;5.25;;;2.33;;
69775;SDS011;57049;51.450;-2.516;2023-05-07T13:50:16;94.03;;;13.00;;
69775;SDS011;57049;51.450;-2.516;2023-05-07T13:52:43;8.63;;;3.45;;
69775;SDS011;57049;51.450;-2.516;2023-05-07T13:55:15;25.60;;;4.75;;
69775;SDS011;57049;51.450;-2.516;2023-05-07T13:57:44;8.00;;;2.53;;
69775;SDS011;57049;51.450;-2.516;2023-05-07T14:00:10;7.20;;;2.45;;
69775;SDS011;57049;51.450;-2.516;2023-05-07T14:02:36;7.20;;;2.20;;
69775;SDS011;57049;51.450;-2.516;2023-05-07T14:05:01;141.63;;;53.57;;
69775;SDS011;57049;51.450;-2.516;2023-05-07T14:07:27;51.58;;;8.63;;
69775;SDS011;57049;51.450;-2.516;2023-05-07T14:09:53;9.80;;;3.23;;
69775;SDS011;57049;51.450;-2.516;2023-05-07T14:12:19;7.50;;;2.00;;
69775;SDS011;57049;51.450;-2.516;2023-05-07T14:14:45;4.35;;;1.80;;
69775;SDS011;57049;51.450;-2.516;2023-05-07T14:17:11;4.67;;;2.30;;
69775;SDS011;57049;51.450;-2.516;2023-05-07T14:19:37;4.50;;;2.30;;
69775;SDS011;57049;51.450;-2.516;2023-05-07T14:22:03;8.53;;;2.17;;
69775;SDS011;57049;51.450;-2.516;2023-05-07T14:24:28;6.00;;;4.13;;
69775;SDS011;57049;51.450;-2.516;2023-05-07T14:26:54;16.43;;;7.37;;
69775;SDS011;57049;51.450;-2.516;2023-05-07T14:29:19;10.57;;;5.47;;
69775;SDS011;57049;51.450;-2.516;2023-05-07T14:31:45;12.02;;;4.75;;
69775;SDS011;57049;51.450;-2.516;2023-05-07T14:34:11;5.53;;;3.07;;
69775;SDS011;57049;51.450;-2.516;2023-05-07T14:36:36;7.72;;;5.22;;
69775;SDS011;57049;51.450;-2.516;2023-05-07T14:39:03;24.52;;;9.82;;
69775;SDS011;57049;51.450;-2.516;2023-05-07T14:41:29;4.83;;;3.23;;
69775;SDS011;57049;51.450;-2.516;2023-05-07T14:43:54;7.72;;;2.28;;